Time;durP1;ratioP1;P1;durP2;ratioP2;P2;SDS_P1;SDS_P2;PMS_P1;PMS_P2;Temp;Humidity;BMP_temperature;BMP_pressure;BME280_temperature;BME280_humidity;BME280_pressure;Samples;Min_cycle;Max_cycle;Signal;HPM_P1;HPM_P2
2023/06/26 00:00:17;;;;;;;6.97;6.38;;;25.80;93.00;;;;;;5006328;28;20239;-76
2023/06/26 00:02:48;;;;;;;8.00;6.35;;;25.80;92.40;;;;;;5022626;28;20226;-76
2023/06/26 00:05:15;;;;;;;7.78;6.72;;;25.90;92.50;;;;;;5008407;28;20207;-76
2023/06/26 00:07:43;;;;;;;6.90;6.20;;;25.90;92.20;;;;;;5009583;28;20207;-76
2023/06/26 00:10:10;;;;;;;7.18;6.50;;;25.80;92.10;;;;;;5015465;28;20196;-76
2023/06/26 00:12:38;;;;;;;9.38;6.35;;;25.90;91.90;;;;;;5011081;28;20255;-76
2023/06/26 00:15:07;;;;;;;7.43;6.78;;;25.80;91.60;;;;;;5005720;28;20191;-76
2023/06/26 00:17:37;;;;;;;6.65;5.97;;;25.90;91.50;;;;;;5024913;28;20199;-76
2023/06/26 00:20:06;;;;;;;7.63;6.47;;;25.90;91.50;;;;;;5009311;28;20563;-76
2023/06/26 00:22:40;;;;;;;6.97;6.35;;;25.80;91.50;;;;;;5022453;28;20222;-76
2023/06/26 00:25:08;;;;;;;7.25;6.45;;;25.70;91.50;;;;;;5004559;28;20199;-76
2023/06/26 00:27:35;;;;;;;6.90;6.20;;;25.80;91.30;;;;;;5020807;28;20195;-76
2023/06/26 00:30:03;;;;;;;8.38;6.90;;;25.90;91.00;;;;;;5007383;28;20674;-76
2023/06/26 00:32:31;;;;;;;6.28;5.68;;;25.90;91.10;;;;;;5021179;28;20216;-76
2023/06/26 00:34:58;;;;;;;6.63;6.05;;;25.90;91.10;;;;;;5009648;28;20199;-76
2023/06/26 00:37:27;;;;;;;6.82;6.13;;;25.90;91.00;;;;;;5005923;28;20203;-76
2023/06/26 00:39:54;;;;;;;6.88;6.28;;;25.80;90.90;;;;;;5004006;28;20218;-76
2023/06/26 00:42:22;;;;;;;6.10;5.60;;;25.90;91.00;;;;;;5022545;28;20212;-76
2023/06/26 00:44:49;;;;;;;9.73;6.85;;;25.90;90.90;;;;;;5023642;28;20576;-76
2023/06/26 00:47:18;;;;;;;6.75;6.07;;;25.90;90.80;;;;;;5007910;28;20207;-76
2023/06/26 00:49:45;;;;;;;6.70;6.07;;;25.80;90.70;;;;;;5025081;28;20203;-76
2023/06/26 00:52:13;;;;;;;6.75;6.15;;;25.90;90.70;;;;;;5006476;28;20218;-76
2023/06/26 00:54:42;;;;;;;6.57;5.97;;;25.90;90.60;;;;;;5007875;28;20204;-76
2023/06/26 00:57:11;;;;;;;7.60;6.38;;;25.90;90.70;;;;;;5024395;28;20199;-76
2023/06/26 00:59:38;;;;;;;7.10;6.28;;;25.90;90.70;;;;;;5007749;28;20701;-76
2023/06/26 01:02:05;;;;;;;6.78;6.18;;;25.90;90.70;;;;;;5024487;28;20215;-76
2023/06/26 01:04:33;;;;;;;5.68;5.18;;;25.80;90.80;;;;;;5021820;28;20211;-76
2023/06/26 01:07:02;;;;;;;7.00;6.28;;;25.80;90.90;;;;;;5025097;28;20195;-76
2023/06/26 01:09:30;;;;;;;7.00;6.40;;;25.80;91.10;;;;;;5024634;28;20208;-76
2023/06/26 01:11:59;;;;;;;7.38;6.68;;;25.80;90.90;;;;;;5007009;28;20223;-76
2023/06/26 01:14:26;;;;;;;6.40;5.80;;;25.80;91.00;;;;;;5003716;28;20208;-76
2023/06/26 01:16:57;;;;;;;6.85;6.25;;;25.70;90.90;;;;;;5025458;28;20204;-76
2023/06/26 01:19:26;;;;;;;6.75;6.15;;;25.70;90.90;;;;;;5008593;28;20195;-76
2023/06/26 01:22:01;;;;;;;6.53;5.93;;;25.70;91.00;;;;;;5000908;28;20212;-76
2023/06/26 01:24:33;;;;;;;7.35;6.70;;;25.60;91.00;;;;;;5002591;28;20563;-76
2023/06/26 01:27:02;;;;;;;6.68;6.07;;;25.60;91.10;;;;;;5009768;28;20635;-76
2023/06/26 01:29:33;;;;;;;6.95;6.25;;;25.60;91.00;;;;;;5023065;28;20670;-76
2023/06/26 01:32:01;;;;;;;7.00;6.40;;;25.60;91.00;;;;;;5009527;28;20227;-76
2023/06/26 01:34:37;;;;;;;7.03;6.43;;;25.70;91.00;;;;;;5012402;28;20276;-76
2023/06/26 01:37:04;;;;;;;6.05;5.55;;;25.60;91.00;;;;;;5028227;28;20206;-76
2023/06/26 01:39:34;;;;;;;6.90;6.20;;;25.60;91.10;;;;;;5011549;28;20200;-76
2023/06/26 01:42:03;;;;;;;8.25;6.53;;;25.60;91.10;;;;;;5012598;28;20223;-76
2023/06/26 01:44:36;;;;;;;6.65;6.05;;;25.60;90.90;;;;;;5013692;28;20200;-77
2023/06/26 01:47:05;;;;;;;6.93;6.28;;;25.60;91.10;;;;;;5018810;28;20222;-77
2023/06/26 01:49:44;;;;;;;6.72;6.13;;;25.60;91.10;;;;;;5022228;28;20203;-76
2023/06/26 01:52:20;;;;;;;6.78;6.18;;;25.60;91.20;;;;;;5004562;28;20723;-76
2023/06/26 01:54:54;;;;;;;7.43;6.03;;;25.60;91.30;;;;;;5003249;28;20202;-76
2023/06/26 01:57:25;;;;;;;6.88;6.22;;;25.50;91.20;;;;;;5017998;28;20203;-76
2023/06/26 01:59:53;;;;;;;6.72;5.97;;;25.40;91.20;;;;;;5008176;28;20206;-76
2023/06/26 02:02:20;;;;;;;6.53;5.80;;;25.40;91.30;;;;;;5004273;28;20226;-76
2023/06/26 02:04:49;;;;;;;6.75;6.15;;;25.40;91.30;;;;;;5020497;28;20196;-76
2023/06/26 02:07:16;;;;;;;6.40;5.90;;;25.40;91.20;;;;;;5020232;28;20688;-76
2023/06/26 02:09:44;;;;;;;8.07;6.13;;;25.40;91.20;;;;;;5006984;28;20196;-76
2023/06/26 02:12:11;;;;;;;6.57;5.97;;;25.40;91.20;;;;;;5003583;28;20235;-76
2023/06/26 02:14:40;;;;;;;6.85;6.15;;;25.40;91.30;;;;;;5006601;28;20195;-76
2023/06/26 02:17:08;;;;;;;6.78;6.18;;;25.30;91.30;;;;;;5013436;28;20206;-76
2023/06/26 02:19:36;;;;;;;7.00;6.30;;;25.30;91.30;;;;;;5024465;28;20196;-76
2023/06/26 02:22:03;;;;;;;6.95;6.35;;;25.30;91.30;;;;;;5003537;28;20251;-76
2023/06/26 02:24:32;;;;;;;7.05;6.38;;;25.20;91.50;;;;;;5004434;28;20636;-76
2023/06/26 02:26:59;;;;;;;6.63;6.07;;;25.20;91.60;;;;;;5009038;28;21987;-77
2023/06/26 02:29:27;;;;;;;7.95;6.38;;;25.20;91.60;;;;;;5007391;28;20206;-76
2023/06/26 02:31:56;;;;;;;7.22;6.53;;;25.20;91.60;;;;;;5005917;28;20212;-76
2023/06/26 02:34:23;;;;;;;7.25;6.55;;;25.20;91.70;;;;;;5003047;28;20585;-76
2023/06/26 02:36:54;;;;;;;7.18;6.47;;;25.20;91.80;;;;;;5010992;28;20203;-76
2023/06/26 02:39:22;;;;;;;6.95;6.25;;;25.20;91.60;;;;;;5012118;28;20199;-76
2023/06/26 02:41:49;;;;;;;6.97;6.28;;;25.20;91.60;;;;;;5023998;28;20219;-76
2023/06/26 02:44:17;;;;;;;7.45;6.32;;;25.10;91.80;;;;;;5009098;28;20684;-76
2023/06/26 02:46:45;;;;;;;7.40;6.70;;;25.20;92.00;;;;;;5008594;28;20195;-76
2023/06/26 02:49:13;;;;;;;6.88;6.22;;;25.10;91.70;;;;;;5023862;28;20195;-76
2023/06/26 02:51:41;;;;;;;7.57;6.78;;;25.10;91.80;;;;;;5005043;28;20216;-76
2023/06/26 02:54:22;;;;;;;6.75;6.15;;;24.70;91.90;;;;;;5003536;28;20211;-76
2023/06/26 02:56:53;;;;;;;7.30;6.70;;;24.50;92.30;;;;;;5027138;28;20207;-76
2023/06/26 02:59:26;;;;;;;8.13;6.65;;;24.60;92.50;;;;;;5005991;28;20196;-76
2023/06/26 03:01:54;;;;;;;7.05;6.35;;;24.50;92.50;;;;;;5002380;28;20232;-76
2023/06/26 03:04:28;;;;;;;7.07;6.38;;;24.40;92.60;;;;;;5019456;28;20208;-76
2023/06/26 03:06:56;;;;;;;7.43;6.45;;;24.20;93.00;;;;;;5020902;28;20677;-76
2023/06/26 03:09:23;;;;;;;7.47;6.68;;;24.30;92.80;;;;;;5009165;28;20576;-76
2023/06/26 03:11:52;;;;;;;6.82;6.22;;;24.40;92.90;;;;;;5006015;28;20522;-76
2023/06/26 03:14:22;;;;;;;6.95;6.35;;;24.40;93.00;;;;;;5019132;28;20593;-76
2023/06/26 03:16:52;;;;;;;7.75;6.90;;;24.20;93.30;;;;;;5006302;28;20203;-76
2023/06/26 03:19:20;;;;;;;7.90;6.70;;;24.10;93.40;;;;;;5027006;28;20694;-76
2023/06/26 03:22:11;;;;;;;7.38;6.68;;;24.10;93.50;;;;;;5005826;28;20216;-76
2023/06/26 03:24:38;;;;;;;7.13;6.38;;;24.10;93.50;;;;;;5002722;28;20211;-76
2023/06/26 03:27:06;;;;;;;7.20;6.50;;;24.20;93.20;;;;;;5023936;28;20200;-76
2023/06/26 03:29:34;;;;;;;7.85;6.90;;;24.30;93.20;;;;;;5024266;28;20196;-76
2023/06/26 03:32:02;;;;;;;7.35;6.13;;;24.10;93.20;;;;;;5009218;28;20216;-76
2023/06/26 03:34:30;;;;;;;8.60;6.88;;;24.00;93.50;;;;;;5010018;28;20203;-76
2023/06/26 03:36:57;;;;;;;7.65;6.95;;;23.90;93.60;;;;;;5024440;28;20543;-76
2023/06/26 03:39:26;;;;;;;7.32;6.70;;;24.00;93.60;;;;;;5011866;28;20212;-76
2023/06/26 03:41:54;;;;;;;6.97;6.32;;;24.00;93.60;;;;;;5008535;28;20219;-77
2023/06/26 03:44:23;;;;;;;7.15;6.45;;;24.10;93.70;;;;;;5007489;28;20211;-76
2023/06/26 03:46:51;;;;;;;7.72;6.97;;;24.10;93.70;;;;;;5007495;28;20215;-76
2023/06/26 03:49:18;;;;;;;6.93;6.32;;;24.00;94.00;;;;;;5022603;28;20200;-76
2023/06/26 03:51:46;;;;;;;6.78;6.18;;;23.90;94.40;;;;;;5012380;28;20228;-76
2023/06/26 03:54:13;;;;;;;7.13;6.45;;;23.80;95.00;;;;;;5024311;28;20204;-76
2023/06/26 03:56:42;;;;;;;7.38;6.68;;;23.80;95.80;;;;;;5017655;28;20207;-76
2023/06/26 03:59:10;;;;;;;8.10;7.25;;;23.70;96.70;;;;;;5008016;28;20204;-76
2023/06/26 04:01:38;;;;;;;7.55;6.70;;;23.80;97.00;;;;;;5006752;28;20227;-76
2023/06/26 04:04:06;;;;;;;7.50;6.80;;;23.90;97.10;;;;;;5022388;28;20203;-76
2023/06/26 04:06:34;;;;;;;7.57;6.55;;;23.70;97.80;;;;;;5005070;28;20533;-76
2023/06/26 04:09:02;;;;;;;7.30;6.60;;;23.80;98.10;;;;;;5006869;28;20203;-76
2023/06/26 04:11:29;;;;;;;8.32;7.53;;;23.80;98.50;;;;;;5004871;28;20218;-76
2023/06/26 04:13:58;;;;;;;8.40;7.60;;;23.60;99.00;;;;;;5026108;28;20202;-76
2023/06/26 04:16:26;;;;;;;8.52;7.60;;;23.30;99.90;;;;;;5018481;28;20210;-76
2023/06/26 04:18:56;;;;;;;8.27;7.47;;;23.30;99.90;;;;;;5018178;28;20206;-76
2023/06/26 04:21:25;;;;;;;9.05;7.47;;;23.40;99.90;;;;;;5006558;28;20231;-76
2023/06/26 04:23:52;;;;;;;7.57;6.88;;;23.30;99.90;;;;;;5004285;28;20200;-76
2023/06/26 04:26:20;;;;;;;8.95;7.97;;;23.20;99.90;;;;;;5005871;28;20208;-76
2023/06/26 04:28:47;;;;;;;8.10;7.18;;;23.10;99.90;;;;;;5022631;28;20562;-76
2023/06/26 04:31:16;;;;;;;9.25;6.80;;;23.20;99.90;;;;;;5007188;28;20228;-76
2023/06/26 04:33:44;;;;;;;7.90;7.10;;;22.90;99.90;;;;;;5007534;28;20204;-76
2023/06/26 04:36:12;;;;;;;7.95;7.15;;;23.10;99.90;;;;;;5003301;28;20202;-76
2023/06/26 04:38:39;;;;;;;7.95;7.13;;;23.10;99.90;;;;;;4990015;28;20204;-76
2023/06/26 04:41:07;;;;;;;9.05;7.25;;;23.00;99.90;;;;;;5022017;28;20250;-76
2023/06/26 04:43:34;;;;;;;8.32;7.47;;;23.30;99.90;;;;;;5007747;28;20204;-76
2023/06/26 04:46:03;;;;;;;8.85;7.20;;;23.20;99.90;;;;;;5012094;28;20210;-76
2023/06/26 04:48:35;;;;;;;9.77;7.88;;;23.30;99.90;;;;;;5007892;28;20196;-76
2023/06/26 04:51:02;;;;;;;8.25;7.53;;;23.20;99.90;;;;;;5016367;28;20227;-75
2023/06/26 04:53:29;;;;;;;8.63;7.55;;;23.30;99.90;;;;;;5023467;28;20563;-76
2023/06/26 04:55:57;;;;;;;7.90;7.10;;;23.40;99.90;;;;;;5005571;28;20219;-76
2023/06/26 04:58:24;;;;;;;8.57;7.63;;;23.30;99.90;;;;;;4998931;28;20207;-76
2023/06/26 05:00:51;;;;;;;11.85;8.32;;;23.10;99.90;;;;;;5012124;28;20222;-76
2023/06/26 05:03:19;;;;;;;8.93;7.68;;;23.10;99.90;;;;;;5000972;28;20223;-76
2023/06/26 05:06:07;;;;;;;9.88;8.15;;;23.10;99.90;;;;;;5011314;28;20191;-76
2023/06/26 05:08:38;;;;;;;8.27;7.00;;;23.10;99.90;;;;;;5023898;28;20215;-76
2023/06/26 05:11:06;;;;;;;8.90;7.82;;;23.20;99.90;;;;;;5009798;28;20223;-77
2023/06/26 05:13:33;;;;;;;9.05;7.53;;;23.30;99.90;;;;;;5025337;28;20204;-76
2023/06/26 05:16:01;;;;;;;9.35;7.20;;;22.90;99.90;;;;;;5006549;28;20199;-76
2023/06/26 05:24:48;;;;;;;8.68;6.82;;;23.30;99.90;;;;;;5007195;28;20200;-79
2023/06/26 05:27:21;;;;;;;10.25;7.28;;;23.00;99.90;;;;;;5012197;28;20203;-79
2023/06/26 05:29:49;;;;;;;11.32;7.20;;;22.70;99.90;;;;;;5008377;28;20200;-78
2023/06/26 05:32:18;;;;;;;9.70;6.65;;;22.70;99.90;;;;;;5008048;28;20226;-77
2023/06/26 05:34:48;;;;;;;7.28;6.10;;;22.50;99.90;;;;;;5008527;28;20557;-77
2023/06/26 05:37:20;;;;;;;9.48;6.35;;;22.70;99.90;;;;;;5012954;28;20204;-77
2023/06/26 05:39:49;;;;;;;7.65;5.72;;;22.70;99.90;;;;;;5008927;28;20195;-77
2023/06/26 05:42:18;;;;;;;7.13;5.63;;;22.90;99.90;;;;;;5025711;28;20219;-77
2023/06/26 05:44:45;;;;;;;8.73;6.35;;;23.00;99.90;;;;;;5029073;28;20206;-77
2023/06/26 05:47:13;;;;;;;8.13;6.43;;;23.00;99.90;;;;;;5025826;28;20210;-77
2023/06/26 05:49:40;;;;;;;7.35;5.95;;;22.80;99.90;;;;;;5024390;28;20538;-77
2023/06/26 05:52:09;;;;;;;9.00;6.78;;;23.00;99.90;;;;;;5019645;28;20585;-76
2023/06/26 05:54:38;;;;;;;8.18;6.10;;;23.30;99.90;;;;;;5008302;28;20200;-76
2023/06/26 05:57:06;;;;;;;7.85;6.20;;;23.40;99.90;;;;;;5026642;28;21901;-77
2023/06/26 05:59:35;;;;;;;9.50;6.80;;;23.40;99.90;;;;;;5026596;28;20203;-77
2023/06/26 06:02:10;;;;;;;10.90;7.18;;;23.40;99.90;;;;;;5014002;28;20212;-76
2023/06/26 06:04:37;;;;;;;9.52;7.50;;;23.30;99.90;;;;;;5027959;28;20562;-76
2023/06/26 06:07:05;;;;;;;8.77;7.05;;;23.30;99.90;;;;;;5027308;28;20208;-76
2023/06/26 06:09:33;;;;;;;10.85;6.90;;;23.20;99.90;;;;;;5011456;28;20200;-76
2023/06/26 06:12:03;;;;;;;9.57;6.93;;;22.80;99.90;;;;;;5008403;28;20223;-76
2023/06/26 06:14:31;;;;;;;8.98;7.32;;;23.00;99.90;;;;;;5002044;28;20656;-76
2023/06/26 06:16:58;;;;;;;11.30;6.88;;;23.00;99.90;;;;;;5019507;28;20203;-76
2023/06/26 06:19:27;;;;;;;8.40;6.47;;;22.90;99.90;;;;;;5008581;28;20196;-77
2023/06/26 06:21:55;;;;;;;7.82;6.50;;;22.60;99.90;;;;;;5012304;28;20238;-75
2023/06/26 06:24:22;;;;;;;9.32;6.78;;;22.90;99.90;;;;;;5008221;28;20203;-74
2023/06/26 06:26:50;;;;;;;9.23;6.50;;;22.70;99.90;;;;;;5012222;28;20547;-74
2023/06/26 06:29:19;;;;;;;8.30;7.10;;;22.60;99.90;;;;;;5006325;28;20205;-77
2023/06/26 06:31:47;;;;;;;9.32;6.93;;;22.50;99.90;;;;;;5007679;28;20223;-77
2023/06/26 06:34:24;;;;;;;9.73;7.63;;;22.60;99.90;;;;;;5008820;28;20999;-77
2023/06/26 06:36:51;;;;;;;11.27;7.35;;;22.70;99.90;;;;;;5008797;28;20191;-77
2023/06/26 06:39:18;;;;;;;9.80;6.63;;;22.60;99.90;;;;;;5007245;28;20219;-77
2023/06/26 06:41:46;;;;;;;8.75;6.72;;;22.50;99.90;;;;;;5006495;28;20224;-77
2023/06/26 06:44:13;;;;;;;9.85;6.85;;;22.60;99.90;;;;;;5011976;28;20567;-77
2023/06/26 06:46:42;;;;;;;8.90;6.07;;;22.50;99.90;;;;;;5013300;28;20195;-77
2023/06/26 06:49:09;;;;;;;10.05;6.82;;;22.70;99.90;;;;;;5013550;28;20196;-77
2023/06/26 06:51:37;;;;;;;12.40;7.03;;;22.50;99.90;;;;;;5016505;28;20247;-77
2023/06/26 06:54:04;;;;;;;9.48;6.30;;;22.50;99.90;;;;;;5008121;28;20188;-79
2023/06/26 06:56:34;;;;;;;8.65;5.97;;;22.30;99.90;;;;;;5012768;28;20200;-79
2023/06/26 06:59:03;;;;;;;10.70;6.90;;;22.00;99.90;;;;;;5026935;28;20200;-79
2023/06/26 07:01:31;;;;;;;9.18;6.32;;;22.20;99.90;;;;;;5026797;28;20242;-77
2023/06/26 07:04:00;;;;;;;10.75;6.70;;;22.20;99.90;;;;;;5006149;28;20222;-77
2023/06/26 07:06:27;;;;;;;8.07;5.93;;;22.10;99.90;;;;;;5001288;28;20204;-77
2023/06/26 07:08:55;;;;;;;10.60;6.60;;;22.30;99.90;;;;;;5009688;28;20196;-77
2023/06/26 07:11:22;;;;;;;9.32;7.45;;;22.70;99.90;;;;;;5006839;28;20230;-76
2023/06/26 07:13:49;;;;;;;6.88;5.43;;;22.60;99.90;;;;;;5024992;28;20219;-78
2023/06/26 07:16:18;;;;;;;11.30;6.70;;;22.40;99.90;;;;;;5004974;28;20202;-78
2023/06/26 07:18:45;;;;;;;10.05;6.55;;;22.50;99.90;;;;;;5008532;28;20222;-78
2023/06/26 07:21:14;;;;;;;11.70;7.03;;;22.80;99.90;;;;;;5009567;28;20222;-80
2023/06/26 07:23:41;;;;;;;9.68;6.78;;;22.90;99.90;;;;;;5004386;28;20295;-79
2023/06/26 07:26:09;;;;;;;12.90;7.07;;;22.90;99.90;;;;;;5027972;28;20558;-79
2023/06/26 07:28:36;;;;;;;17.27;9.00;;;23.00;99.90;;;;;;5010824;28;20210;-79
2023/06/26 07:31:04;;;;;;;13.13;9.70;;;23.00;99.90;;;;;;5010661;28;20219;-79
2023/06/26 07:33:31;;;;;;;14.00;8.45;;;22.90;99.90;;;;;;5005769;28;20566;-79
2023/06/26 07:35:58;;;;;;;12.23;8.30;;;23.00;99.90;;;;;;5012431;28;20700;-79
2023/06/26 07:38:27;;;;;;;11.02;7.75;;;22.90;99.90;;;;;;5010775;28;20196;-79
2023/06/26 07:40:55;;;;;;;13.50;9.27;;;22.90;99.90;;;;;;5023647;28;20227;-80
2023/06/26 07:43:24;;;;;;;13.52;9.98;;;23.00;99.90;;;;;;5022517;28;20709;-79
2023/06/26 07:45:53;;;;;;;15.30;10.90;;;22.90;99.90;;;;;;5016965;28;20198;-79
2023/06/26 07:48:20;;;;;;;13.40;10.93;;;23.10;99.90;;;;;;5016077;28;20203;-79
2023/06/26 07:50:48;;;;;;;18.63;10.55;;;22.80;99.90;;;;;;5013161;28;20204;-80
2023/06/26 07:53:15;;;;;;;15.75;9.70;;;22.70;99.90;;;;;;5023665;28;20211;-80
2023/06/26 07:55:44;;;;;;;13.02;9.30;;;22.80;99.90;;;;;;5026168;28;20215;-79
2023/06/26 07:58:12;;;;;;;13.65;10.32;;;22.90;99.90;;;;;;5026362;28;20196;-79
2023/06/26 08:00:39;;;;;;;13.88;10.07;;;22.90;99.90;;;;;;5026254;28;20677;-80
2023/06/26 08:03:07;;;;;;;12.27;8.60;;;23.10;99.90;;;;;;5022728;28;20243;-80
2023/06/26 08:05:34;;;;;;;12.57;9.18;;;23.40;99.90;;;;;;5026416;28;20206;-80
2023/06/26 08:08:03;;;;;;;14.90;9.35;;;23.50;99.90;;;;;;5011676;28;20203;-80
2023/06/26 08:10:30;;;;;;;13.27;8.95;;;23.50;99.90;;;;;;5025791;28;20203;-79
2023/06/26 08:12:59;;;;;;;13.73;10.18;;;23.20;99.90;;;;;;5006835;28;20200;-80
2023/06/26 08:15:26;;;;;;;11.75;9.38;;;23.40;99.90;;;;;;5009578;28;20195;-79
2023/06/26 08:17:54;;;;;;;11.20;8.93;;;23.40;99.90;;;;;;5009275;28;20207;-79
2023/06/26 08:20:22;;;;;;;11.07;8.43;;;23.50;99.90;;;;;;5011269;28;20191;-78
2023/06/26 08:22:51;;;;;;;11.18;8.52;;;23.30;99.90;;;;;;5007859;28;20222;-79
2023/06/26 08:25:18;;;;;;;15.45;8.65;;;23.30;99.90;;;;;;5023584;28;20204;-78
2023/06/26 08:27:46;;;;;;;10.75;7.55;;;23.40;99.90;;;;;;5008454;28;20199;-78
2023/06/26 08:30:15;;;;;;;11.77;8.30;;;23.30;99.90;;;;;;5030218;28;20203;-78
2023/06/26 08:32:42;;;;;;;13.98;8.60;;;23.30;99.90;;;;;;5017263;28;20216;-78
2023/06/26 08:35:10;;;;;;;11.63;8.30;;;23.50;99.90;;;;;;5005142;28;20196;-78
2023/06/26 08:37:37;;;;;;;15.98;9.50;;;23.50;99.90;;;;;;5008612;28;20383;-77
2023/06/26 08:40:06;;;;;;;11.35;10.13;;;23.50;99.90;;;;;;5010680;28;20187;-79
2023/06/26 08:42:34;;;;;;;15.73;11.75;;;23.30;99.90;;;;;;5027607;28;20223;-77
2023/06/26 08:45:02;;;;;;;12.98;10.35;;;23.40;99.90;;;;;;5029570;28;20219;-77
2023/06/26 08:47:33;;;;;;;13.88;9.48;;;23.40;99.90;;;;;;5029805;28;20649;-77
2023/06/26 08:50:09;;;;;;;9.65;6.97;;;23.50;99.90;;;;;;5010709;28;20207;-76
2023/06/26 08:52:41;;;;;;;10.80;6.60;;;23.40;99.90;;;;;;5010601;28;20227;-77
2023/06/26 08:55:15;;;;;;;8.40;6.13;;;23.60;99.90;;;;;;5009100;28;20198;-77
2023/06/26 08:57:45;;;;;;;8.88;6.22;;;23.40;99.90;;;;;;5013247;28;20204;-76
2023/06/26 09:00:14;;;;;;;8.27;5.78;;;23.50;99.90;;;;;;5029497;28;20199;-77
2023/06/26 09:02:43;;;;;;;10.75;6.45;;;23.70;99.90;;;;;;5010973;28;20227;-77
2023/06/26 09:05:11;;;;;;;13.27;6.63;;;23.50;99.90;;;;;;5001478;28;20532;-77
2023/06/26 09:07:38;;;;;;;9.48;5.88;;;23.40;99.90;;;;;;5012093;28;20200;-76
2023/06/26 09:10:06;;;;;;;10.73;6.38;;;23.40;99.90;;;;;;5013490;28;20590;-78
2023/06/26 09:12:35;;;;;;;10.77;5.30;;;23.50;99.90;;;;;;5014242;28;20230;-78
2023/06/26 09:15:03;;;;;;;7.38;5.40;;;23.30;99.90;;;;;;5016428;28;20192;-79
2023/06/26 09:17:31;;;;;;;10.70;5.63;;;23.40;99.90;;;;;;5026359;28;20834;-78
2023/06/26 09:20:00;;;;;;;8.10;5.57;;;23.50;99.90;;;;;;5012914;28;20242;-78
2023/06/26 09:22:27;;;;;;;9.68;5.53;;;23.40;99.90;;;;;;5008324;28;20238;-78
2023/06/26 09:24:59;;;;;;;9.13;5.40;;;23.50;99.90;;;;;;5025952;28;20211;-79
2023/06/26 09:27:27;;;;;;;9.00;5.40;;;23.60;99.90;;;;;;5022523;28;20219;-78
2023/06/26 09:29:55;;;;;;;9.43;5.57;;;23.60;99.90;;;;;;5012456;28;20216;-78
2023/06/26 09:32:25;;;;;;;9.77;5.32;;;23.70;99.90;;;;;;5006866;28;20239;-78
2023/06/26 09:35:02;;;;;;;9.00;6.05;;;23.70;99.90;;;;;;5009278;28;20207;-78
2023/06/26 09:37:32;;;;;;;8.07;5.40;;;23.90;99.90;;;;;;5020818;28;20199;-78
2023/06/26 09:40:00;;;;;;;9.80;5.10;;;23.70;99.90;;;;;;5003497;28;20195;-79
2023/06/26 09:42:27;;;;;;;9.68;4.57;;;23.80;99.90;;;;;;5005870;28;20219;-79
2023/06/26 09:44:55;;;;;;;9.20;5.20;;;23.70;99.90;;;;;;5009772;28;20237;-80
2023/06/26 09:47:23;;;;;;;10.13;4.78;;;23.80;99.90;;;;;;5005692;28;20204;-79
2023/06/26 09:49:52;;;;;;;8.38;4.70;;;23.80;99.90;;;;;;5004264;28;20212;-78
2023/06/26 09:52:21;;;;;;;10.25;4.57;;;23.70;99.90;;;;;;5003581;28;20239;-77
2023/06/26 09:54:49;;;;;;;10.77;4.80;;;23.60;99.90;;;;;;5003245;28;20200;-76
2023/06/26 09:57:19;;;;;;;6.47;4.70;;;23.60;99.90;;;;;;5004697;28;20226;-79
2023/06/26 09:59:47;;;;;;;10.38;5.07;;;23.60;99.90;;;;;;5003984;28;20200;-77
2023/06/26 10:02:15;;;;;;;5.88;4.38;;;23.60;99.90;;;;;;5018140;28;20223;-77
2023/06/26 10:04:42;;;;;;;8.55;5.07;;;23.60;99.90;;;;;;5025394;28;20215;-78
2023/06/26 10:07:12;;;;;;;6.35;4.47;;;23.80;99.90;;;;;;5006191;28;20206;-77
2023/06/26 10:09:45;;;;;;;6.78;5.05;;;23.80;99.90;;;;;;5025048;28;20196;-77
2023/06/26 10:12:17;;;;;;;7.72;4.53;;;24.00;99.90;;;;;;5002587;28;20724;-78
2023/06/26 10:14:57;;;;;;;7.80;4.40;;;24.10;99.90;;;;;;5011139;28;20200;-77
2023/06/26 10:17:28;;;;;;;8.60;4.18;;;24.10;99.90;;;;;;5006441;28;20716;-77
2023/06/26 10:19:58;;;;;;;7.55;4.15;;;24.10;99.90;;;;;;5010246;28;20574;-77
2023/06/26 10:22:30;;;;;;;7.00;4.55;;;24.00;99.90;;;;;;5010974;28;20227;-77
2023/06/26 10:25:00;;;;;;;7.30;4.07;;;24.00;99.90;;;;;;5008898;28;20220;-78
2023/06/26 10:27:32;;;;;;;8.27;4.30;;;24.20;99.90;;;;;;5023194;28;20199;-77
2023/06/26 10:30:03;;;;;;;7.18;4.00;;;24.20;99.90;;;;;;5016671;28;20204;-77
2023/06/26 10:32:31;;;;;;;7.22;4.28;;;24.00;99.90;;;;;;5005871;28;20231;-77
2023/06/26 10:34:58;;;;;;;6.75;3.95;;;24.20;99.90;;;;;;5006964;28;20583;-77
2023/06/26 10:37:44;;;;;;;7.85;3.60;;;24.20;99.90;;;;;;5010107;28;20203;-77
2023/06/26 10:40:40;;;;;;;5.97;3.83;;;24.20;99.90;;;;;;5007150;28;20200;-77
2023/06/26 10:43:08;;;;;;;6.20;3.67;;;24.00;99.90;;;;;;5007344;28;20195;-77
2023/06/26 10:45:36;;;;;;;6.90;3.65;;;24.00;99.90;;;;;;5009541;28;20226;-77
2023/06/26 10:48:05;;;;;;;7.00;3.78;;;24.20;99.90;;;;;;5008390;28;20564;-77
2023/06/26 10:50:37;;;;;;;5.82;3.15;;;24.10;99.90;;;;;;5025246;28;20207;-77
2023/06/26 10:53:25;;;;;;;7.53;3.65;;;24.30;99.90;;;;;;5017591;28;20204;-77
2023/06/26 10:56:17;;;;;;;7.20;4.07;;;24.40;99.80;;;;;;4996591;28;20197;-77
2023/06/26 11:02:48;;;;;;;5.15;3.28;;;24.90;94.40;;;;;;5012384;28;20222;-78
2023/06/26 11:05:25;;;;;;;5.75;3.70;;;25.20;94.10;;;;;;5007210;28;20214;-76
2023/06/26 11:08:07;;;;;;;5.32;3.38;;;24.90;94.40;;;;;;5006990;28;20195;-76
2023/06/26 11:10:53;;;;;;;6.43;3.40;;;25.00;94.60;;;;;;5008621;28;20559;-76
2023/06/26 11:13:22;;;;;;;5.13;3.70;;;24.90;95.50;;;;;;5005307;28;20221;-76
2023/06/26 11:15:51;;;;;;;6.68;3.78;;;24.70;97.00;;;;;;5010560;28;20199;-76
2023/06/26 11:18:19;;;;;;;6.38;4.22;;;24.40;98.60;;;;;;5010955;28;20208;-77
2023/06/26 11:20:46;;;;;;;6.32;3.63;;;24.20;99.90;;;;;;5014409;28;20208;-77
2023/06/26 11:23:14;;;;;;;7.63;3.70;;;24.70;99.90;;;;;;5007877;28;20204;-81
2023/06/26 11:25:42;;;;;;;5.80;3.33;;;25.10;99.90;;;;;;5009514;28;20227;-77
2023/06/26 11:28:18;;;;;;;3.85;3.40;;;25.00;98.30;;;;;;5024329;28;20214;-77
2023/06/26 11:30:47;;;;;;;4.88;3.00;;;25.00;97.80;;;;;;5011443;28;20206;-77
2023/06/26 11:33:14;;;;;;;4.47;3.10;;;25.10;97.70;;;;;;5004807;28;20199;-77
2023/06/26 11:35:42;;;;;;;4.45;3.50;;;24.80;96.80;;;;;;4998905;28;20658;-77
2023/06/26 11:38:09;;;;;;;6.25;3.20;;;24.80;96.60;;;;;;5007359;28;20207;-78
2023/06/26 11:40:37;;;;;;;4.22;3.03;;;24.70;97.00;;;;;;5025586;28;20211;-76
2023/06/26 11:43:05;;;;;;;3.17;2.45;;;24.70;97.00;;;;;;5003030;28;20192;-76
2023/06/26 11:45:33;;;;;;;3.80;2.70;;;25.10;96.10;;;;;;5024023;28;20559;-76
2023/06/26 11:48:02;;;;;;;4.78;2.80;;;24.90;94.90;;;;;;5024173;28;20207;-76
2023/06/26 11:50:29;;;;;;;5.03;2.95;;;24.60;93.70;;;;;;5010669;28;20601;-77
2023/06/26 11:52:57;;;;;;;2.92;2.25;;;24.50;93.20;;;;;;4998012;28;20219;-75
2023/06/26 11:55:26;;;;;;;4.10;2.05;;;24.50;92.80;;;;;;4983268;28;20207;-76
2023/06/26 11:57:55;;;;;;;3.65;1.92;;;24.80;92.10;;;;;;4991506;28;20224;-76
2023/06/26 12:00:24;;;;;;;3.53;2.25;;;24.50;92.30;;;;;;4981265;28;20567;-75
2023/06/26 12:02:52;;;;;;;3.55;2.28;;;24.50;92.30;;;;;;5003654;28;20215;-76
2023/06/26 12:05:21;;;;;;;5.07;1.98;;;24.50;92.10;;;;;;5007972;28;20226;-76
2023/06/26 12:07:50;;;;;;;2.28;1.85;;;24.40;91.60;;;;;;5007894;28;20199;-76
2023/06/26 12:10:24;;;;;;;4.22;2.10;;;24.50;91.80;;;;;;5004769;28;20674;-78
2023/06/26 12:12:51;;;;;;;3.03;2.00;;;24.70;92.20;;;;;;5009542;28;20247;-76
2023/06/26 12:15:20;;;;;;;3.45;2.00;;;24.90;92.40;;;;;;5007861;28;20211;-76
2023/06/26 12:17:47;;;;;;;3.40;1.75;;;24.80;91.40;;;;;;5009490;28;20192;-75
2023/06/26 12:20:32;;;;;;;3.72;1.80;;;25.10;90.70;;;;;;4990998;28;20689;-75
2023/06/26 12:23:02;;;;;;;3.35;1.55;;;25.10;90.50;;;;;;4998623;28;20224;-76
2023/06/26 12:25:30;;;;;;;3.45;1.90;;;24.90;89.60;;;;;;5006436;28;20231;-77
2023/06/26 12:27:57;;;;;;;4.60;1.75;;;24.90;90.10;;;;;;5016557;28;20202;-78
2023/06/26 12:30:26;;;;;;;5.95;1.77;;;24.70;89.40;;;;;;5013758;28;20204;-77
2023/06/26 12:32:54;;;;;;;4.20;1.40;;;24.70;87.80;;;;;;4983780;28;20248;-75
2023/06/26 12:35:25;;;;;;;3.38;1.30;;;24.40;86.70;;;;;;5000472;28;20215;-75
2023/06/26 12:38:21;;;;;;;2.50;1.85;;;24.70;86.00;;;;;;5007463;28;20207;-76
2023/06/26 12:40:50;;;;;;;4.72;1.48;;;24.90;85.70;;;;;;4990025;28;20687;-77
2023/06/26 12:43:44;;;;;;;3.22;1.42;;;24.70;85.20;;;;;;5010658;28;20215;-76
2023/06/26 12:46:12;;;;;;;3.33;1.35;;;24.90;85.10;;;;;;4981506;28;20219;-77
2023/06/26 12:48:43;;;;;;;5.00;1.45;;;25.20;81.20;;;;;;4992828;28;20196;-75
2023/06/26 12:51:11;;;;;;;3.08;1.30;;;25.00;79.20;;;;;;5013487;28;20215;-77
2023/06/26 12:53:40;;;;;;;2.65;1.15;;;25.40;78.40;;;;;;4982433;28;20211;-77
2023/06/26 12:56:10;;;;;;;2.53;1.20;;;25.20;75.80;;;;;;5008521;28;20226;-77
2023/06/26 12:58:44;;;;;;;4.75;1.13;;;25.10;76.20;;;;;;5014618;28;20223;-77
2023/06/26 13:01:14;;;;;;;2.45;1.30;;;25.10;75.70;;;;;;5014105;28;20226;-77
2023/06/26 13:03:42;;;;;;;4.85;1.40;;;25.30;75.60;;;;;;5002268;28;20219;-77
2023/06/26 13:06:09;;;;;;;1.50;1.10;;;25.20;76.40;;;;;;5006778;28;20215;-76